sensor_id;sensor_type;location;lat;lon;timestamp;temperature;humidity
3053;DHT22;1536;51.098;6.414;2024-02-16T00:02:02;13.90;99.90
3053;DHT22;1536;51.098;6.414;2024-02-16T00:04:28;13.90;99.90
3053;DHT22;1536;51.098;6.414;2024-02-16T00:06:56;13.90;99.90
3053;DHT22;1536;51.098;6.414;2024-02-16T00:09:24;13.90;99.90
3053;DHT22;1536;51.098;6.414;2024-02-16T00:11:52;13.90;99.90
3053;DHT22;1536;51.098;6.414;2024-02-16T00:14:20;13.90;99.90
3053;DHT22;1536;51.098;6.414;2024-02-16T00:16:47;13.90;99.90
3053;DHT22;1536;51.098;6.414;2024-02-16T00:19:14;13.90;99.90
3053;DHT22;1536;51.098;6.414;2024-02-16T00:21:41;14.00;99.90
3053;DHT22;1536;51.098;6.414;2024-02-16T00:24:08;13.90;99.90
3053;DHT22;1536;51.098;6.414;2024-02-16T00:26:37;13.90;99.90
3053;DHT22;1536;51.098;6.414;2024-02-16T00:29:05;13.90;99.90
3053;DHT22;1536;51.098;6.414;2024-02-16T00:31:31;13.90;99.90
3053;DHT22;1536;51.098;6.414;2024-02-16T00:33:58;13.90;99.90
3053;DHT22;1536;51.098;6.414;2024-02-16T00:36:26;14.00;99.90
3053;DHT22;1536;51.098;6.414;2024-02-16T00:38:53;13.90;99.90
3053;DHT22;1536;51.098;6.414;2024-02-16T00:41:21;13.90;99.90
3053;DHT22;1536;51.098;6.414;2024-02-16T00:43:49;13.90;99.90
3053;DHT22;1536;51.098;6.414;2024-02-16T00:46:17;13.90;99.90
3053;DHT22;1536;51.098;6.414;2024-02-16T00:48:44;13.90;99.90
3053;DHT22;1536;51.098;6.414;2024-02-16T00:51:12;13.90;99.90
3053;DHT22;1536;51.098;6.414;2024-02-16T00:53:39;13.90;99.90
3053;DHT22;1536;51.098;6.414;2024-02-16T00:56:06;13.90;99.90
3053;DHT22;1536;51.098;6.414;2024-02-16T00:58:34;13.90;99.90
3053;DHT22;1536;51.098;6.414;2024-02-16T01:01:03;13.90;99.90
3053;DHT22;1536;51.098;6.414;2024-02-16T01:03:30;13.90;99.90
3053;DHT22;1536;51.098;6.414;2024-02-16T01:05:57;13.90;99.90
3053;DHT22;1536;51.098;6.414;2024-02-16T01:08:24;13.90;99.90
3053;DHT22;1536;51.098;6.414;2024-02-16T01:10:53;13.90;99.90
3053;DHT22;1536;51.098;6.414;2024-02-16T01:13:20;14.00;99.90
3053;DHT22;1536;51.098;6.414;2024-02-16T01:15:47;13.90;99.90
3053;DHT22;1536;51.098;6.414;2024-02-16T01:18:15;13.90;99.90
3053;DHT22;1536;51.098;6.414;2024-02-16T01:20:42;14.00;99.90
3053;DHT22;1536;51.098;6.414;2024-02-16T01:23:09;14.00;99.90
3053;DHT22;1536;51.098;6.414;2024-02-16T01:25:36;14.00;99.90
3053;DHT22;1536;51.098;6.414;2024-02-16T01:28:04;14.00;99.90
3053;DHT22;1536;51.098;6.414;2024-02-16T01:30:32;14.00;99.90
3053;DHT22;1536;51.098;6.414;2024-02-16T01:32:58;14.00;99.90
3053;DHT22;1536;51.098;6.414;2024-02-16T01:35:27;14.00;99.90
3053;DHT22;1536;51.098;6.414;2024-02-16T01:37:54;14.00;99.90
3053;DHT22;1536;51.098;6.414;2024-02-16T01:40:20;14.00;99.90
3053;DHT22;1536;51.098;6.414;2024-02-16T01:42:48;14.00;99.90
3053;DHT22;1536;51.098;6.414;2024-02-16T01:45:15;14.00;99.90
3053;DHT22;1536;51.098;6.414;2024-02-16T01:47:43;14.00;99.90
3053;DHT22;1536;51.098;6.414;2024-02-16T01:50:13;14.00;99.90
3053;DHT22;1536;51.098;6.414;2024-02-16T01:52:43;14.00;99.90
3053;DHT22;1536;51.098;6.414;2024-02-16T01:55:12;14.00;99.90
3053;DHT22;1536;51.098;6.414;2024-02-16T01:57:39;14.00;99.90
3053;DHT22;1536;51.098;6.414;2024-02-16T02:00:07;14.00;99.90
3053;DHT22;1536;51.098;6.414;2024-02-16T02:02:34;14.00;99.90
3053;DHT22;1536;51.098;6.414;2024-02-16T02:05:02;14.00;99.90
3053;DHT22;1536;51.098;6.414;2024-02-16T02:07:29;13.90;99.90
3053;DHT22;1536;51.098;6.414;2024-02-16T02:09:57;13.90;99.90
3053;DHT22;1536;51.098;6.414;2024-02-16T02:12:24;13.90;99.90
3053;DHT22;1536;51.098;6.414;2024-02-16T02:14:52;13.90;99.90
3053;DHT22;1536;51.098;6.414;2024-02-16T02:17:19;13.90;99.90
3053;DHT22;1536;51.098;6.414;2024-02-16T02:19:46;13.90;99.90
3053;DHT22;1536;51.098;6.414;2024-02-16T02:22:15;13.80;99.90
3053;DHT22;1536;51.098;6.414;2024-02-16T02:24:42;13.80;99.90
3053;DHT22;1536;51.098;6.414;2024-02-16T02:27:09;13.80;99.90
3053;DHT22;1536;51.098;6.414;2024-02-16T02:29:37;13.80;99.90
3053;DHT22;1536;51.098;6.414;2024-02-16T02:32:04;13.80;99.90
3053;DHT22;1536;51.098;6.414;2024-02-16T02:34:31;13.90;99.90
3053;DHT22;1536;51.098;6.414;2024-02-16T02:36:58;13.90;99.90
3053;DHT22;1536;51.098;6.414;2024-02-16T02:39:27;13.90;99.90
3053;DHT22;1536;51.098;6.414;2024-02-16T02:41:54;13.90;99.90
3053;DHT22;1536;51.098;6.414;2024-02-16T02:44:20;13.90;99.90
3053;DHT22;1536;51.098;6.414;2024-02-16T02:46:47;13.90;99.90
3053;DHT22;1536;51.098;6.414;2024-02-16T02:49:14;13.90;99.90
3053;DHT22;1536;51.098;6.414;2024-02-16T02:51:43;13.90;99.90
3053;DHT22;1536;51.098;6.414;2024-02-16T02:54:10;13.90;99.90
3053;DHT22;1536;51.098;6.414;2024-02-16T02:56:38;13.90;99.90
3053;DHT22;1536;51.098;6.414;2024-02-16T02:59:05;13.90;99.90
3053;DHT22;1536;51.098;6.414;2024-02-16T03:01:34;14.00;99.90
3053;DHT22;1536;51.098;6.414;2024-02-16T03:04:01;13.90;99.90
3053;DHT22;1536;51.098;6.414;2024-02-16T03:06:28;13.90;99.90
3053;DHT22;1536;51.098;6.414;2024-02-16T03:08:55;13.90;99.90
3053;DHT22;1536;51.098;6.414;2024-02-16T03:11:22;13.90;99.90
3053;DHT22;1536;51.098;6.414;2024-02-16T03:13:50;13.90;99.90
3053;DHT22;1536;51.098;6.414;2024-02-16T03:16:17;13.90;99.90
3053;DHT22;1536;51.098;6.414;2024-02-16T03:18:44;13.90;99.90
3053;DHT22;1536;51.098;6.414;2024-02-16T03:21:13;13.90;99.90
3053;DHT22;1536;51.098;6.414;2024-02-16T03:23:42;14.00;99.90
3053;DHT22;1536;51.098;6.414;2024-02-16T03:26:14;13.90;99.90
3053;DHT22;1536;51.098;6.414;2024-02-16T03:28:43;14.00;99.90
3053;DHT22;1536;51.098;6.414;2024-02-16T03:31:16;14.00;99.90
3053;DHT22;1536;51.098;6.414;2024-02-16T03:33:43;14.00;99.90
3053;DHT22;1536;51.098;6.414;2024-02-16T03:36:10;14.00;99.90
3053;DHT22;1536;51.098;6.414;2024-02-16T03:38:38;14.00;99.90
3053;DHT22;1536;51.098;6.414;2024-02-16T03:41:07;14.00;99.90
3053;DHT22;1536;51.098;6.414;2024-02-16T03:43:34;14.00;99.90
3053;DHT22;1536;51.098;6.414;2024-02-16T03:46:01;14.00;99.90
3053;DHT22;1536;51.098;6.414;2024-02-16T03:48:30;13.90;99.90
3053;DHT22;1536;51.098;6.414;2024-02-16T03:50:57;14.00;99.90
3053;DHT22;1536;51.098;6.414;2024-02-16T03:53:24;14.00;99.90
3053;DHT22;1536;51.098;6.414;2024-02-16T03:55:54;14.00;99.90
3053;DHT22;1536;51.098;6.414;2024-02-16T03:58:21;14.00;99.90
3053;DHT22;1536;51.098;6.414;2024-02-16T04:00:48;13.90;99.90
3053;DHT22;1536;51.098;6.414;2024-02-16T04:03:15;13.90;99.90
3053;DHT22;1536;51.098;6.414;2024-02-16T04:05:43;14.00;99.90
3053;DHT22;1536;51.098;6.414;2024-02-16T04:08:10;13.90;99.90
3053;DHT22;1536;51.098;6.414;2024-02-16T04:10:37;13.90;99.90
3053;DHT22;1536;51.098;6.414;2024-02-16T04:13:04;13.90;99.90
3053;DHT22;1536;51.098;6.414;2024-02-16T04:15:31;13.90;99.90
3053;DHT22;1536;51.098;6.414;2024-02-16T04:17:58;13.90;99.90
3053;DHT22;1536;51.098;6.414;2024-02-16T04:20:26;13.90;99.90
3053;DHT22;1536;51.098;6.414;2024-02-16T04:22:54;13.90;99.90
3053;DHT22;1536;51.098;6.414;2024-02-16T04:25:21;13.90;99.90
3053;DHT22;1536;51.098;6.414;2024-02-16T04:27:47;13.90;99.90
3053;DHT22;1536;51.098;6.414;2024-02-16T04:30:14;13.90;99.90
3053;DHT22;1536;51.098;6.414;2024-02-16T04:32:41;13.90;99.90
3053;DHT22;1536;51.098;6.414;2024-02-16T04:35:08;13.90;99.90
3053;DHT22;1536;51.098;6.414;2024-02-16T04:37:37;13.90;99.90
3053;DHT22;1536;51.098;6.414;2024-02-16T04:40:07;13.90;99.90
3053;DHT22;1536;51.098;6.414;2024-02-16T04:42:38;13.90;99.90
3053;DHT22;1536;51.098;6.414;2024-02-16T04:45:06;13.90;99.90
3053;DHT22;1536;51.098;6.414;2024-02-16T04:47:34;13.90;99.90
3053;DHT22;1536;51.098;6.414;2024-02-16T04:50:00;13.90;99.90
3053;DHT22;1536;51.098;6.414;2024-02-16T04:52:28;13.90;99.90
3053;DHT22;1536;51.098;6.414;2024-02-16T04:54:55;13.90;99.90
3053;DHT22;1536;51.098;6.414;2024-02-16T04:57:23;13.90;99.90
3053;DHT22;1536;51.098;6.414;2024-02-16T04:59:52;13.90;99.90
3053;DHT22;1536;51.098;6.414;2024-02-16T05:02:19;13.80;99.90
3053;DHT22;1536;51.098;6.414;2024-02-16T05:04:46;13.80;99.90
3053;DHT22;1536;51.098;6.414;2024-02-16T05:07:13;13.80;99.90
3053;DHT22;1536;51.098;6.414;2024-02-16T05:09:41;13.90;99.90
3053;DHT22;1536;51.098;6.414;2024-02-16T05:12:08;13.90;99.90
3053;DHT22;1536;51.098;6.414;2024-02-16T05:14:37;13.90;99.90
3053;DHT22;1536;51.098;6.414;2024-02-16T05:17:03;13.90;99.90
3053;DHT22;1536;51.098;6.414;2024-02-16T05:19:32;13.80;99.90
3053;DHT22;1536;51.098;6.414;2024-02-16T05:22:00;13.80;99.90
3053;DHT22;1536;51.098;6.414;2024-02-16T05:24:26;13.80;99.90
3053;DHT22;1536;51.098;6.414;2024-02-16T05:26:53;13.80;99.90
3053;DHT22;1536;51.098;6.414;2024-02-16T05:29:21;13.80;99.90
3053;DHT22;1536;51.098;6.414;2024-02-16T05:31:52;13.90;99.90
3053;DHT22;1536;51.098;6.414;2024-02-16T05:34:19;13.80;99.90
3053;DHT22;1536;51.098;6.414;2024-02-16T05:36:45;13.80;99.90
3053;DHT22;1536;51.098;6.414;2024-02-16T05:39:13;13.90;99.90
3053;DHT22;1536;51.098;6.414;2024-02-16T05:41:52;13.90;99.90
3053;DHT22;1536;51.098;6.414;2024-02-16T05:44:18;13.90;99.90
3053;DHT22;1536;51.098;6.414;2024-02-16T05:46:46;13.90;99.90
3053;DHT22;1536;51.098;6.414;2024-02-16T05:49:14;13.90;99.90
3053;DHT22;1536;51.098;6.414;2024-02-16T05:51:41;13.90;99.90
3053;DHT22;1536;51.098;6.414;2024-02-16T05:54:25;13.90;99.90
3053;DHT22;1536;51.098;6.414;2024-02-16T05:56:52;13.90;99.90
3053;DHT22;1536;51.098;6.414;2024-02-16T05:59:19;13.90;99.90
3053;DHT22;1536;51.098;6.414;2024-02-16T06:01:47;13.90;99.90
3053;DHT22;1536;51.098;6.414;2024-02-16T06:04:15;13.90;99.90
3053;DHT22;1536;51.098;6.414;2024-02-16T06:06:42;13.90;99.90
3053;DHT22;1536;51.098;6.414;2024-02-16T06:09:09;13.90;99.90
3053;DHT22;1536;51.098;6.414;2024-02-16T06:11:36;13.90;99.90
3053;DHT22;1536;51.098;6.414;2024-02-16T06:14:04;13.90;99.90
3053;DHT22;1536;51.098;6.414;2024-02-16T06:16:31;13.90;99.90
3053;DHT22;1536;51.098;6.414;2024-02-16T06:18:57;13.90;99.90
3053;DHT22;1536;51.098;6.414;2024-02-16T06:21:26;13.90;99.90
3053;DHT22;1536;51.098;6.414;2024-02-16T06:23:53;13.90;99.90
3053;DHT22;1536;51.098;6.414;2024-02-16T06:26:20;13.90;99.90
3053;DHT22;1536;51.098;6.414;2024-02-16T06:28:47;13.90;99.90
3053;DHT22;1536;51.098;6.414;2024-02-16T06:31:14;13.90;99.90
3053;DHT22;1536;51.098;6.414;2024-02-16T06:33:41;13.90;99.90
3053;DHT22;1536;51.098;6.414;2024-02-16T06:36:08;13.90;99.90
3053;DHT22;1536;51.098;6.414;2024-02-16T06:38:37;13.90;99.90
3053;DHT22;1536;51.098;6.414;2024-02-16T06:41:04;13.90;99.90
3053;DHT22;1536;51.098;6.414;2024-02-16T06:43:31;13.90;99.90
3053;DHT22;1536;51.098;6.414;2024-02-16T06:45:58;13.90;99.90
3053;DHT22;1536;51.098;6.414;2024-02-16T06:48:24;13.90;99.90
3053;DHT22;1536;51.098;6.414;2024-02-16T06:50:51;13.90;99.90
3053;DHT22;1536;51.098;6.414;2024-02-16T06:53:19;13.90;99.90
3053;DHT22;1536;51.098;6.414;2024-02-16T06:55:47;13.80;99.90
3053;DHT22;1536;51.098;6.414;2024-02-16T06:58:14;13.80;99.90
3053;DHT22;1536;51.098;6.414;2024-02-16T07:00:41;13.80;99.90
3053;DHT22;1536;51.098;6.414;2024-02-16T07:03:08;13.80;99.90
3053;DHT22;1536;51.098;6.414;2024-02-16T07:05:36;13.80;99.90
3053;DHT22;1536;51.098;6.414;2024-02-16T07:08:03;13.80;99.90
3053;DHT22;1536;51.098;6.414;2024-02-16T07:10:31;13.80;99.90
3053;DHT22;1536;51.098;6.414;2024-02-16T07:13:00;13.80;99.90
3053;DHT22;1536;51.098;6.414;2024-02-16T07:15:27;13.90;99.90
3053;DHT22;1536;51.098;6.414;2024-02-16T07:17:54;13.90;99.90
3053;DHT22;1536;51.098;6.414;2024-02-16T07:20:20;13.90;99.90
3053;DHT22;1536;51.098;6.414;2024-02-16T07:22:47;13.90;99.90
3053;DHT22;1536;51.098;6.414;2024-02-16T07:25:17;13.90;99.90
3053;DHT22;1536;51.098;6.414;2024-02-16T07:27:44;13.90;99.90
3053;DHT22;1536;51.098;6.414;2024-02-16T07:30:12;13.90;99.90
3053;DHT22;1536;51.098;6.414;2024-02-16T07:32:39;13.90;99.90
3053;DHT22;1536;51.098;6.414;2024-02-16T07:35:06;14.00;99.90
3053;DHT22;1536;51.098;6.414;2024-02-16T07:37:35;14.00;99.90
3053;DHT22;1536;51.098;6.414;2024-02-16T07:40:03;14.00;99.90
3053;DHT22;1536;51.098;6.414;2024-02-16T07:42:32;14.00;99.90
3053;DHT22;1536;51.098;6.414;2024-02-16T07:44:59;14.10;99.90
3053;DHT22;1536;51.098;6.414;2024-02-16T07:47:27;14.10;99.90
3053;DHT22;1536;51.098;6.414;2024-02-16T07:49:54;14.10;99.90
3053;DHT22;1536;51.098;6.414;2024-02-16T07:52:21;14.20;99.90
3053;DHT22;1536;51.098;6.414;2024-02-16T07:54:48;14.20;99.90
3053;DHT22;1536;51.098;6.414;2024-02-16T07:57:17;14.20;99.90
3053;DHT22;1536;51.098;6.414;2024-02-16T07:59:43;14.30;99.90
3053;DHT22;1536;51.098;6.414;2024-02-16T08:02:10;14.30;99.90
3053;DHT22;1536;51.098;6.414;2024-02-16T08:04:42;14.30;99.90
3053;DHT22;1536;51.098;6.414;2024-02-16T08:07:09;14.30;99.90
3053;DHT22;1536;51.098;6.414;2024-02-16T08:09:36;14.40;99.90
3053;DHT22;1536;51.098;6.414;2024-02-16T08:12:04;14.40;99.90
3053;DHT22;1536;51.098;6.414;2024-02-16T08:14:32;14.50;99.90
3053;DHT22;1536;51.098;6.414;2024-02-16T08:16:59;14.50;99.90
3053;DHT22;1536;51.098;6.414;2024-02-16T08:19:31;14.60;99.90
3053;DHT22;1536;51.098;6.414;2024-02-16T08:22:00;14.60;99.90
3053;DHT22;1536;51.098;6.414;2024-02-16T08:24:27;14.60;99.90
3053;DHT22;1536;51.098;6.414;2024-02-16T08:26:54;14.70;99.90
3053;DHT22;1536;51.098;6.414;2024-02-16T08:29:21;14.70;99.90
3053;DHT22;1536;51.098;6.414;2024-02-16T08:31:49;14.70;99.90
3053;DHT22;1536;51.098;6.414;2024-02-16T08:34:16;14.80;99.90
3053;DHT22;1536;51.098;6.414;2024-02-16T08:36:44;14.80;99.90
3053;DHT22;1536;51.098;6.414;2024-02-16T08:39:12;14.80;99.90
3053;DHT22;1536;51.098;6.414;2024-02-16T08:41:39;14.90;99.90
3053;DHT22;1536;51.098;6.414;2024-02-16T08:44:06;14.90;99.90
3053;DHT22;1536;51.098;6.414;2024-02-16T08:46:34;14.90;99.90
3053;DHT22;1536;51.098;6.414;2024-02-16T08:49:01;14.90;99.90
3053;DHT22;1536;51.098;6.414;2024-02-16T08:51:28;14.90;99.90
3053;DHT22;1536;51.098;6.414;2024-02-16T08:53:55;15.00;99.90
3053;DHT22;1536;51.098;6.414;2024-02-16T08:56:23;15.00;99.90
3053;DHT22;1536;51.098;6.414;2024-02-16T08:58:50;15.00;99.90
3053;DHT22;1536;51.098;6.414;2024-02-16T09:01:17;15.00;99.90
3053;DHT22;1536;51.098;6.414;2024-02-16T09:03:44;15.00;99.90
3053;DHT22;1536;51.098;6.414;2024-02-16T09:06:11;15.00;99.90
3053;DHT22;1536;51.098;6.414;2024-02-16T09:08:38;15.10;99.90
3053;DHT22;1536;51.098;6.414;2024-02-16T09:11:05;15.10;99.90
3053;DHT22;1536;51.098;6.414;2024-02-16T09:13:33;15.10;99.90
3053;DHT22;1536;51.098;6.414;2024-02-16T09:16:02;15.10;99.90
3053;DHT22;1536;51.098;6.414;2024-02-16T09:18:30;15.20;99.90
3053;DHT22;1536;51.098;6.414;2024-02-16T09:20:57;15.20;99.90
3053;DHT22;1536;51.098;6.414;2024-02-16T09:23:25;15.20;99.90
3053;DHT22;1536;51.098;6.414;2024-02-16T09:25:53;15.20;99.90
3053;DHT22;1536;51.098;6.414;2024-02-16T09:28:20;15.30;99.90
3053;DHT22;1536;51.098;6.414;2024-02-16T09:30:48;15.30;99.90
3053;DHT22;1536;51.098;6.414;2024-02-16T09:33:15;15.30;99.90
3053;DHT22;1536;51.098;6.414;2024-02-16T09:35:42;15.30;99.90
3053;DHT22;1536;51.098;6.414;2024-02-16T09:38:09;15.30;99.90
3053;DHT22;1536;51.098;6.414;2024-02-16T09:40:36;15.40;99.90
3053;DHT22;1536;51.098;6.414;2024-02-16T09:43:04;15.40;99.90
3053;DHT22;1536;51.098;6.414;2024-02-16T09:45:32;15.40;99.90
3053;DHT22;1536;51.098;6.414;2024-02-16T09:48:02;15.40;99.90
3053;DHT22;1536;51.098;6.414;2024-02-16T09:50:29;15.40;99.90
3053;DHT22;1536;51.098;6.414;2024-02-16T09:52:56;15.50;99.90
3053;DHT22;1536;51.098;6.414;2024-02-16T09:55:24;15.50;99.90
3053;DHT22;1536;51.098;6.414;2024-02-16T09:57:58;15.50;99.90
3053;DHT22;1536;51.098;6.414;2024-02-16T10:00:25;15.50;99.90
3053;DHT22;1536;51.098;6.414;2024-02-16T10:02:51;15.50;99.90
3053;DHT22;1536;51.098;6.414;2024-02-16T10:05:20;15.60;99.90
3053;DHT22;1536;51.098;6.414;2024-02-16T10:07:47;15.50;99.90
3053;DHT22;1536;51.098;6.414;2024-02-16T10:10:20;15.60;99.90
3053;DHT22;1536;51.098;6.414;2024-02-16T10:13:00;15.60;99.90
3053;DHT22;1536;51.098;6.414;2024-02-16T10:15:27;15.60;99.90
3053;DHT22;1536;51.098;6.414;2024-02-16T10:18:00;15.60;99.90
3053;DHT22;1536;51.098;6.414;2024-02-16T10:20:28;15.60;99.90
3053;DHT22;1536;51.098;6.414;2024-02-16T10:23:05;15.60;99.90
3053;DHT22;1536;51.098;6.414;2024-02-16T10:25:32;15.60;99.90
3053;DHT22;1536;51.098;6.414;2024-02-16T10:28:02;15.60;99.90
3053;DHT22;1536;51.098;6.414;2024-02-16T10:30:34;15.70;99.90
3053;DHT22;1536;51.098;6.414;2024-02-16T10:33:02;15.70;99.90
3053;DHT22;1536;51.098;6.414;2024-02-16T10:35:31;15.70;99.90
3053;DHT22;1536;51.098;6.414;2024-02-16T10:37:59;15.70;99.90
3053;DHT22;1536;51.098;6.414;2024-02-16T10:40:31;15.70;99.90
3053;DHT22;1536;51.098;6.414;2024-02-16T10:43:01;15.70;99.90
3053;DHT22;1536;51.098;6.414;2024-02-16T10:45:33;15.70;99.90
3053;DHT22;1536;51.098;6.414;2024-02-16T10:48:01;15.70;99.90
3053;DHT22;1536;51.098;6.414;2024-02-16T10:50:28;15.70;99.90
3053;DHT22;1536;51.098;6.414;2024-02-16T10:53:00;15.80;99.90
3053;DHT22;1536;51.098;6.414;2024-02-16T10:55:29;15.80;99.90
3053;DHT22;1536;51.098;6.414;2024-02-16T10:57:56;15.80;99.90
3053;DHT22;1536;51.098;6.414;2024-02-16T11:00:24;15.80;99.90
3053;DHT22;1536;51.098;6.414;2024-02-16T11:02:53;15.90;99.90
3053;DHT22;1536;51.098;6.414;2024-02-16T11:05:32;15.90;99.90
3053;DHT22;1536;51.098;6.414;2024-02-16T11:08:02;15.90;99.90
3053;DHT22;1536;51.098;6.414;2024-02-16T11:10:29;15.90;99.90
3053;DHT22;1536;51.098;6.414;2024-02-16T11:13:01;16.00;99.90
3053;DHT22;1536;51.098;6.414;2024-02-16T11:15:30;16.00;99.90
3053;DHT22;1536;51.098;6.414;2024-02-16T11:17:57;16.00;99.90
3053;DHT22;1536;51.098;6.414;2024-02-16T11:20:25;16.00;99.90
3053;DHT22;1536;51.098;6.414;2024-02-16T11:22:53;16.00;99.90
3053;DHT22;1536;51.098;6.414;2024-02-16T11:25:30;16.00;99.90
3053;DHT22;1536;51.098;6.414;2024-02-16T11:27:58;16.00;99.90
3053;DHT22;1536;51.098;6.414;2024-02-16T11:30:25;16.00;99.90
3053;DHT22;1536;51.098;6.414;2024-02-16T11:32:52;16.00;99.90
3053;DHT22;1536;51.098;6.414;2024-02-16T11:35:20;16.00;99.90
3053;DHT22;1536;51.098;6.414;2024-02-16T11:37:47;16.00;99.90
3053;DHT22;1536;51.098;6.414;2024-02-16T11:40:14;16.00;99.90
3053;DHT22;1536;51.098;6.414;2024-02-16T11:42:45;16.00;99.90
3053;DHT22;1536;51.098;6.414;2024-02-16T11:45:13;16.00;99.90
3053;DHT22;1536;51.098;6.414;2024-02-16T11:47:41;16.00;99.90
3053;DHT22;1536;51.098;6.414;2024-02-16T11:50:09;15.90;99.90
3053;DHT22;1536;51.098;6.414;2024-02-16T11:52:36;15.90;99.90
3053;DHT22;1536;51.098;6.414;2024-02-16T11:55:08;15.90;99.90
3053;DHT22;1536;51.098;6.414;2024-02-16T11:57:35;16.00;99.90
3053;DHT22;1536;51.098;6.414;2024-02-16T12:00:04;16.00;99.90
3053;DHT22;1536;51.098;6.414;2024-02-16T12:02:35;16.00;99.90
3053;DHT22;1536;51.098;6.414;2024-02-16T12:05:03;16.00;99.90
3053;DHT22;1536;51.098;6.414;2024-02-16T12:07:31;15.90;99.90
3053;DHT22;1536;51.098;6.414;2024-02-16T12:09:59;15.90;99.90
3053;DHT22;1536;51.098;6.414;2024-02-16T12:12:27;15.90;99.90
3053;DHT22;1536;51.098;6.414;2024-02-16T12:14:54;15.90;99.90
3053;DHT22;1536;51.098;6.414;2024-02-16T12:17:23;15.90;99.90
3053;DHT22;1536;51.098;6.414;2024-02-16T12:19:51;15.90;99.90
3053;DHT22;1536;51.098;6.414;2024-02-16T12:22:18;15.90;99.90
3053;DHT22;1536;51.098;6.414;2024-02-16T12:24:45;15.90;99.90
3053;DHT22;1536;51.098;6.414;2024-02-16T12:27:12;15.80;99.90
3053;DHT22;1536;51.098;6.414;2024-02-16T12:29:40;15.80;99.90
3053;DHT22;1536;51.098;6.414;2024-02-16T12:32:07;15.80;99.90
3053;DHT22;1536;51.098;6.414;2024-02-16T12:34:36;15.80;99.90
3053;DHT22;1536;51.098;6.414;2024-02-16T12:37:04;15.70;99.90
3053;DHT22;1536;51.098;6.414;2024-02-16T12:39:33;15.70;99.90
3053;DHT22;1536;51.098;6.414;2024-02-16T12:42:00;15.70;99.90
3053;DHT22;1536;51.098;6.414;2024-02-16T12:44:27;15.70;99.90
3053;DHT22;1536;51.098;6.414;2024-02-16T12:46:53;15.70;99.90
3053;DHT22;1536;51.098;6.414;2024-02-16T12:49:19;15.70;99.90
3053;DHT22;1536;51.098;6.414;2024-02-16T12:51:49;15.70;99.90
3053;DHT22;1536;51.098;6.414;2024-02-16T12:54:16;15.70;99.90
3053;DHT22;1536;51.098;6.414;2024-02-16T12:56:44;15.70;99.90
3053;DHT22;1536;51.098;6.414;2024-02-16T12:59:11;15.70;99.90
3053;DHT22;1536;51.098;6.414;2024-02-16T13:01:38;15.70;99.90
3053;DHT22;1536;51.098;6.414;2024-02-16T13:04:05;15.70;99.90
3053;DHT22;1536;51.098;6.414;2024-02-16T13:06:35;15.70;99.90
3053;DHT22;1536;51.098;6.414;2024-02-16T13:09:04;15.60;99.90
3053;DHT22;1536;51.098;6.414;2024-02-16T13:11:32;15.60;99.90
3053;DHT22;1536;51.098;6.414;2024-02-16T13:13:59;15.50;99.90
3053;DHT22;1536;51.098;6.414;2024-02-16T13:16:26;15.50;99.90
3053;DHT22;1536;51.098;6.414;2024-02-16T13:18:53;15.50;99.90
3053;DHT22;1536;51.098;6.414;2024-02-16T13:21:20;15.50;99.90
3053;DHT22;1536;51.098;6.414;2024-02-16T13:23:47;15.50;99.90
3053;DHT22;1536;51.098;6.414;2024-02-16T13:26:15;15.50;99.90
3053;DHT22;1536;51.098;6.414;2024-02-16T13:28:42;15.50;99.90
3053;DHT22;1536;51.098;6.414;2024-02-16T13:31:09;15.50;99.90
3053;DHT22;1536;51.098;6.414;2024-02-16T13:33:37;15.50;99.90
3053;DHT22;1536;51.098;6.414;2024-02-16T13:36:04;15.50;99.90
3053;DHT22;1536;51.098;6.414;2024-02-16T13:38:31;15.50;99.90
3053;DHT22;1536;51.098;6.414;2024-02-16T13:40:58;15.40;99.90
3053;DHT22;1536;51.098;6.414;2024-02-16T13:43:26;15.40;99.90
3053;DHT22;1536;51.098;6.414;2024-02-16T13:45:54;15.40;99.90
3053;DHT22;1536;51.098;6.414;2024-02-16T13:48:23;15.40;99.90
3053;DHT22;1536;51.098;6.414;2024-02-16T13:50:50;15.40;99.90
3053;DHT22;1536;51.098;6.414;2024-02-16T13:53:18;15.30;99.90
3053;DHT22;1536;51.098;6.414;2024-02-16T13:55:48;15.30;99.90
3053;DHT22;1536;51.098;6.414;2024-02-16T13:58:15;15.30;99.90
3053;DHT22;1536;51.098;6.414;2024-02-16T14:00:45;15.30;99.90
3053;DHT22;1536;51.098;6.414;2024-02-16T14:03:13;15.30;99.90
3053;DHT22;1536;51.098;6.414;2024-02-16T14:05:41;15.30;99.90
3053;DHT22;1536;51.098;6.414;2024-02-16T14:08:10;15.30;99.90
3053;DHT22;1536;51.098;6.414;2024-02-16T14:10:38;15.30;99.90
3053;DHT22;1536;51.098;6.414;2024-02-16T14:13:05;15.30;99.90
3053;DHT22;1536;51.098;6.414;2024-02-16T14:15:32;15.20;99.90
3053;DHT22;1536;51.098;6.414;2024-02-16T14:18:00;15.20;99.90
3053;DHT22;1536;51.098;6.414;2024-02-16T14:20:27;15.20;99.90
3053;DHT22;1536;51.098;6.414;2024-02-16T14:22:54;15.20;99.90
3053;DHT22;1536;51.098;6.414;2024-02-16T14:25:22;15.20;99.90
3053;DHT22;1536;51.098;6.414;2024-02-16T14:27:50;15.20;99.90
3053;DHT22;1536;51.098;6.414;2024-02-16T14:30:17;15.20;99.90
3053;DHT22;1536;51.098;6.414;2024-02-16T14:32:45;15.20;99.90
3053;DHT22;1536;51.098;6.414;2024-02-16T14:35:13;15.20;99.90
3053;DHT22;1536;51.098;6.414;2024-02-16T14:37:40;15.20;99.90
3053;DHT22;1536;51.098;6.414;2024-02-16T14:40:07;15.10;99.90
3053;DHT22;1536;51.098;6.414;2024-02-16T14:42:36;15.10;99.90
3053;DHT22;1536;51.098;6.414;2024-02-16T14:45:06;15.10;99.90
3053;DHT22;1536;51.098;6.414;2024-02-16T14:47:34;15.10;99.90
3053;DHT22;1536;51.098;6.414;2024-02-16T14:50:01;15.10;99.90
3053;DHT22;1536;51.098;6.414;2024-02-16T14:55:15;15.00;99.90
3053;DHT22;1536;51.098;6.414;2024-02-16T14:57:42;15.00;99.90
3053;DHT22;1536;51.098;6.414;2024-02-16T15:00:11;15.00;99.90
3053;DHT22;1536;51.098;6.414;2024-02-16T15:02:38;15.00;99.90
3053;DHT22;1536;51.098;6.414;2024-02-16T15:05:07;15.00;99.90
3053;DHT22;1536;51.098;6.414;2024-02-16T15:07:37;14.90;99.90
3053;DHT22;1536;51.098;6.414;2024-02-16T15:10:05;14.90;99.90
3053;DHT22;1536;51.098;6.414;2024-02-16T15:12:47;14.90;99.90
3053;DHT22;1536;51.098;6.414;2024-02-16T15:15:14;14.90;99.90
3053;DHT22;1536;51.098;6.414;2024-02-16T15:17:55;14.80;99.90
3053;DHT22;1536;51.098;6.414;2024-02-16T15:20:25;14.80;99.90
3053;DHT22;1536;51.098;6.414;2024-02-16T15:22:54;14.80;99.90
3053;DHT22;1536;51.098;6.414;2024-02-16T15:25:21;14.80;99.90
3053;DHT22;1536;51.098;6.414;2024-02-16T15:27:48;14.70;99.90
3053;DHT22;1536;51.098;6.414;2024-02-16T15:30:16;14.70;99.90
3053;DHT22;1536;51.098;6.414;2024-02-16T15:32:43;14.60;99.90
3053;DHT22;1536;51.098;6.414;2024-02-16T15:35:10;14.60;99.90
3053;DHT22;1536;51.098;6.414;2024-02-16T15:37:37;14.60;99.90
3053;DHT22;1536;51.098;6.414;2024-02-16T15:40:06;14.50;99.90
3053;DHT22;1536;51.098;6.414;2024-02-16T15:42:34;14.60;99.90
3053;DHT22;1536;51.098;6.414;2024-02-16T15:45:01;14.60;99.90
3053;DHT22;1536;51.098;6.414;2024-02-16T15:47:29;14.50;99.90
3053;DHT22;1536;51.098;6.414;2024-02-16T15:49:56;14.50;99.90
3053;DHT22;1536;51.098;6.414;2024-02-16T15:52:23;14.50;99.90
3053;DHT22;1536;51.098;6.414;2024-02-16T15:54:52;14.50;99.90
3053;DHT22;1536;51.098;6.414;2024-02-16T15:57:22;14.50;99.90
3053;DHT22;1536;51.098;6.414;2024-02-16T15:59:48;14.40;99.90
3053;DHT22;1536;51.098;6.414;2024-02-16T16:02:15;14.40;99.90
3053;DHT22;1536;51.098;6.414;2024-02-16T16:04:42;14.40;99.90
3053;DHT22;1536;51.098;6.414;2024-02-16T16:07:09;14.40;99.90
3053;DHT22;1536;51.098;6.414;2024-02-16T16:09:39;14.40;99.90